sensor_id;sensor_type;location;lat;lon;timestamp;P1;durP1;ratioP1;P2;durP2;ratioP2
6679;SDS011;3376;42.664;23.346;2023-03-14T00:01:56;24.00;;;15.63;;
6679;SDS011;3376;42.664;23.346;2023-03-14T00:04:23;23.47;;;17.17;;
6679;SDS011;3376;42.664;23.346;2023-03-14T00:06:51;11.27;;;10.10;;
6679;SDS011;3376;42.664;23.346;2023-03-14T00:09:18;9.83;;;8.73;;
6679;SDS011;3376;42.664;23.346;2023-03-14T00:11:45;8.87;;;7.97;;
6679;SDS011;3376;42.664;23.346;2023-03-14T00:14:11;13.60;;;7.23;;
6679;SDS011;3376;42.664;23.346;2023-03-14T00:16:40;6.50;;;6.10;;
6679;SDS011;3376;42.664;23.346;2023-03-14T00:19:07;9.47;;;7.60;;
6679;SDS011;3376;42.664;23.346;2023-03-14T00:21:34;8.03;;;7.33;;
6679;SDS011;3376;42.664;23.346;2023-03-14T00:24:02;9.13;;;8.23;;
6679;SDS011;3376;42.664;23.346;2023-03-14T00:26:29;9.27;;;8.47;;
6679;SDS011;3376;42.664;23.346;2023-03-14T00:28:55;11.03;;;9.90;;
6679;SDS011;3376;42.664;23.346;2023-03-14T00:31:22;11.53;;;10.33;;
6679;SDS011;3376;42.664;23.346;2023-03-14T00:33:50;11.67;;;10.63;;
6679;SDS011;3376;42.664;23.346;2023-03-14T00:36:18;11.30;;;10.07;;
6679;SDS011;3376;42.664;23.346;2023-03-14T00:38:46;11.70;;;10.20;;
6679;SDS011;3376;42.664;23.346;2023-03-14T00:41:17;15.17;;;12.17;;
6679;SDS011;3376;42.664;23.346;2023-03-14T00:43:45;12.20;;;10.73;;
6679;SDS011;3376;42.664;23.346;2023-03-14T00:46:12;10.37;;;9.40;;
6679;SDS011;3376;42.664;23.346;2023-03-14T00:48:39;14.33;;;11.43;;
6679;SDS011;3376;42.664;23.346;2023-03-14T00:51:06;22.77;;;11.67;;
6679;SDS011;3376;42.664;23.346;2023-03-14T00:53:34;17.13;;;12.70;;
6679;SDS011;3376;42.664;23.346;2023-03-14T00:56:03;12.57;;;11.37;;
6679;SDS011;3376;42.664;23.346;2023-03-14T00:58:31;14.47;;;11.70;;
6679;SDS011;3376;42.664;23.346;2023-03-14T01:00:58;16.57;;;11.50;;
6679;SDS011;3376;42.664;23.346;2023-03-14T01:03:25;16.50;;;12.10;;
6679;SDS011;3376;42.664;23.346;2023-03-14T01:05:51;15.03;;;12.57;;
6679;SDS011;3376;42.664;23.346;2023-03-14T01:08:18;19.97;;;12.50;;
6679;SDS011;3376;42.664;23.346;2023-03-14T01:10:45;16.97;;;13.50;;
6679;SDS011;3376;42.664;23.346;2023-03-14T01:13:11;15.10;;;13.23;;
6679;SDS011;3376;42.664;23.346;2023-03-14T01:15:39;16.47;;;13.27;;
6679;SDS011;3376;42.664;23.346;2023-03-14T01:18:06;15.37;;;11.97;;
6679;SDS011;3376;42.664;23.346;2023-03-14T01:20:33;13.90;;;12.27;;
6679;SDS011;3376;42.664;23.346;2023-03-14T01:23:00;17.13;;;14.53;;
6679;SDS011;3376;42.664;23.346;2023-03-14T01:25:26;14.43;;;12.53;;
6679;SDS011;3376;42.664;23.346;2023-03-14T01:27:53;15.60;;;12.67;;
6679;SDS011;3376;42.664;23.346;2023-03-14T01:30:20;20.90;;;13.37;;
6679;SDS011;3376;42.664;23.346;2023-03-14T01:32:48;20.40;;;13.13;;
6679;SDS011;3376;42.664;23.346;2023-03-14T01:35:15;16.30;;;14.63;;
6679;SDS011;3376;42.664;23.346;2023-03-14T01:37:42;17.17;;;12.50;;
6679;SDS011;3376;42.664;23.346;2023-03-14T01:40:10;21.97;;;13.77;;
6679;SDS011;3376;42.664;23.346;2023-03-14T01:42:44;19.77;;;13.83;;
6679;SDS011;3376;42.664;23.346;2023-03-14T01:48:19;21.27;;;12.37;;
6679;SDS011;3376;42.664;23.346;2023-03-14T01:50:46;17.07;;;13.00;;
6679;SDS011;3376;42.664;23.346;2023-03-14T01:53:13;16.37;;;13.83;;
6679;SDS011;3376;42.664;23.346;2023-03-14T01:55:41;17.97;;;12.27;;
6679;SDS011;3376;42.664;23.346;2023-03-14T01:58:07;17.50;;;13.70;;
6679;SDS011;3376;42.664;23.346;2023-03-14T02:00:35;16.37;;;14.80;;
6679;SDS011;3376;42.664;23.346;2023-03-14T02:03:04;18.93;;;15.43;;
6679;SDS011;3376;42.664;23.346;2023-03-14T02:05:37;18.87;;;14.90;;
6679;SDS011;3376;42.664;23.346;2023-03-14T02:08:07;17.40;;;14.87;;
6679;SDS011;3376;42.664;23.346;2023-03-14T02:10:37;20.30;;;14.73;;
6679;SDS011;3376;42.664;23.346;2023-03-14T02:13:07;15.63;;;13.73;;
6679;SDS011;3376;42.664;23.346;2023-03-14T02:15:34;18.27;;;13.40;;
6679;SDS011;3376;42.664;23.346;2023-03-14T02:18:02;18.47;;;14.03;;
6679;SDS011;3376;42.664;23.346;2023-03-14T02:20:31;17.87;;;13.67;;
6679;SDS011;3376;42.664;23.346;2023-03-14T02:23:05;17.43;;;15.17;;
6679;SDS011;3376;42.664;23.346;2023-03-14T02:25:35;17.13;;;13.87;;
6679;SDS011;3376;42.664;23.346;2023-03-14T02:28:09;16.33;;;14.63;;
6679;SDS011;3376;42.664;23.346;2023-03-14T02:30:36;23.67;;;15.90;;
6679;SDS011;3376;42.664;23.346;2023-03-14T02:33:03;20.33;;;13.47;;
6679;SDS011;3376;42.664;23.346;2023-03-14T02:35:34;23.67;;;15.47;;
6679;SDS011;3376;42.664;23.346;2023-03-14T02:40:51;19.00;;;14.70;;
6679;SDS011;3376;42.664;23.346;2023-03-14T02:43:19;17.40;;;13.27;;
6679;SDS011;3376;42.664;23.346;2023-03-14T02:45:46;16.03;;;13.67;;
6679;SDS011;3376;42.664;23.346;2023-03-14T02:48:15;16.77;;;13.80;;
6679;SDS011;3376;42.664;23.346;2023-03-14T02:50:44;17.30;;;13.97;;
6679;SDS011;3376;42.664;23.346;2023-03-14T02:53:14;21.60;;;15.18;;
6679;SDS011;3376;42.664;23.346;2023-03-14T02:55:47;20.38;;;14.98;;
6679;SDS011;3376;42.664;23.346;2023-03-14T02:58:14;16.77;;;14.60;;
6679;SDS011;3376;42.664;23.346;2023-03-14T03:00:43;16.57;;;15.03;;
6679;SDS011;3376;42.664;23.346;2023-03-14T03:03:09;16.05;;;14.45;;
6679;SDS011;3376;42.664;23.346;2023-03-14T03:05:36;15.55;;;13.95;;
6679;SDS011;3376;42.664;23.346;2023-03-14T03:08:03;17.85;;;13.70;;
6679;SDS011;3376;42.664;23.346;2023-03-14T03:10:30;18.80;;;15.82;;
6679;SDS011;3376;42.664;23.346;2023-03-14T03:12:57;15.00;;;13.55;;
6679;SDS011;3376;42.664;23.346;2023-03-14T03:15:24;15.70;;;14.23;;
6679;SDS011;3376;42.664;23.346;2023-03-14T03:17:52;15.77;;;12.90;;
6679;SDS011;3376;42.664;23.346;2023-03-14T03:20:19;17.00;;;14.63;;
6679;SDS011;3376;42.664;23.346;2023-03-14T03:22:46;14.53;;;13.13;;
6679;SDS011;3376;42.664;23.346;2023-03-14T03:25:14;15.77;;;13.30;;
6679;SDS011;3376;42.664;23.346;2023-03-14T03:27:41;17.20;;;14.23;;
6679;SDS011;3376;42.664;23.346;2023-03-14T03:30:09;21.30;;;14.00;;
6679;SDS011;3376;42.664;23.346;2023-03-14T03:32:36;17.93;;;13.27;;
6679;SDS011;3376;42.664;23.346;2023-03-14T03:35:05;15.00;;;13.43;;
6679;SDS011;3376;42.664;23.346;2023-03-14T03:37:32;15.07;;;13.57;;
6679;SDS011;3376;42.664;23.346;2023-03-14T03:40:00;15.83;;;14.23;;
6679;SDS011;3376;42.664;23.346;2023-03-14T03:42:29;17.70;;;12.40;;
6679;SDS011;3376;42.664;23.346;2023-03-14T03:44:56;14.95;;;13.25;;
6679;SDS011;3376;42.664;23.346;2023-03-14T03:47:23;14.40;;;12.97;;
6679;SDS011;3376;42.664;23.346;2023-03-14T03:49:49;11.93;;;10.87;;
6679;SDS011;3376;42.664;23.346;2023-03-14T03:52:18;13.40;;;12.03;;
6679;SDS011;3376;42.664;23.346;2023-03-14T03:54:45;12.63;;;11.35;;
6679;SDS011;3376;42.664;23.346;2023-03-14T03:57:12;13.93;;;12.52;;
6679;SDS011;3376;42.664;23.346;2023-03-14T03:59:39;24.60;;;13.27;;
6679;SDS011;3376;42.664;23.346;2023-03-14T04:02:06;14.63;;;11.50;;
6679;SDS011;3376;42.664;23.346;2023-03-14T04:04:32;13.87;;;12.40;;
6679;SDS011;3376;42.664;23.346;2023-03-14T04:06:59;20.87;;;12.70;;
6679;SDS011;3376;42.664;23.346;2023-03-14T04:09:27;14.10;;;10.30;;
6679;SDS011;3376;42.664;23.346;2023-03-14T04:11:54;11.63;;;10.67;;
6679;SDS011;3376;42.664;23.346;2023-03-14T04:14:21;15.10;;;13.32;;
6679;SDS011;3376;42.664;23.346;2023-03-14T04:16:48;15.27;;;13.02;;
6679;SDS011;3376;42.664;23.346;2023-03-14T04:19:15;14.07;;;12.70;;
6679;SDS011;3376;42.664;23.346;2023-03-14T04:21:41;16.75;;;14.18;;
6679;SDS011;3376;42.664;23.346;2023-03-14T04:24:09;16.57;;;14.23;;
6679;SDS011;3376;42.664;23.346;2023-03-14T04:26:38;16.95;;;14.90;;
6679;SDS011;3376;42.664;23.346;2023-03-14T04:29:04;18.88;;;14.90;;
6679;SDS011;3376;42.664;23.346;2023-03-14T04:31:31;20.38;;;15.18;;
6679;SDS011;3376;42.664;23.346;2023-03-14T04:33:58;20.60;;;15.03;;
6679;SDS011;3376;42.664;23.346;2023-03-14T04:36:25;14.95;;;13.07;;
6679;SDS011;3376;42.664;23.346;2023-03-14T04:38:51;13.68;;;11.93;;
6679;SDS011;3376;42.664;23.346;2023-03-14T04:41:18;13.13;;;12.07;;
6679;SDS011;3376;42.664;23.346;2023-03-14T04:43:46;13.60;;;12.20;;
6679;SDS011;3376;42.664;23.346;2023-03-14T04:46:13;16.02;;;12.98;;
6679;SDS011;3376;42.664;23.346;2023-03-14T04:48:40;16.48;;;13.40;;
6679;SDS011;3376;42.664;23.346;2023-03-14T04:51:07;15.40;;;13.60;;
6679;SDS011;3376;42.664;23.346;2023-03-14T04:53:34;16.10;;;13.07;;
6679;SDS011;3376;42.664;23.346;2023-03-14T04:56:02;18.30;;;14.63;;
6679;SDS011;3376;42.664;23.346;2023-03-14T04:58:29;15.93;;;14.10;;
6679;SDS011;3376;42.664;23.346;2023-03-14T05:00:57;17.55;;;13.50;;
6679;SDS011;3376;42.664;23.346;2023-03-14T05:03:28;22.47;;;13.27;;
6679;SDS011;3376;42.664;23.346;2023-03-14T05:05:55;16.92;;;14.80;;
6679;SDS011;3376;42.664;23.346;2023-03-14T05:08:22;23.20;;;15.37;;
6679;SDS011;3376;42.664;23.346;2023-03-14T05:10:51;23.33;;;16.55;;
6679;SDS011;3376;42.664;23.346;2023-03-14T05:13:18;17.27;;;15.53;;
6679;SDS011;3376;42.664;23.346;2023-03-14T05:15:45;26.60;;;14.50;;
6679;SDS011;3376;42.664;23.346;2023-03-14T05:18:13;29.40;;;15.43;;
6679;SDS011;3376;42.664;23.346;2023-03-14T05:20:40;19.17;;;16.03;;
6679;SDS011;3376;42.664;23.346;2023-03-14T05:23:08;19.50;;;15.77;;
6679;SDS011;3376;42.664;23.346;2023-03-14T05:25:34;21.80;;;14.10;;
6679;SDS011;3376;42.664;23.346;2023-03-14T05:28:01;18.37;;;15.70;;
6679;SDS011;3376;42.664;23.346;2023-03-14T05:30:28;22.53;;;15.00;;
6679;SDS011;3376;42.664;23.346;2023-03-14T05:32:56;23.27;;;15.07;;
6679;SDS011;3376;42.664;23.346;2023-03-14T05:35:24;22.33;;;15.07;;
6679;SDS011;3376;42.664;23.346;2023-03-14T05:37:51;20.07;;;14.67;;
6679;SDS011;3376;42.664;23.346;2023-03-14T05:40:17;21.33;;;13.90;;
6679;SDS011;3376;42.664;23.346;2023-03-14T05:42:44;19.30;;;13.90;;
6679;SDS011;3376;42.664;23.346;2023-03-14T05:45:11;15.80;;;14.17;;
6679;SDS011;3376;42.664;23.346;2023-03-14T05:47:38;17.43;;;13.87;;
6679;SDS011;3376;42.664;23.346;2023-03-14T05:50:04;18.50;;;12.77;;
6679;SDS011;3376;42.664;23.346;2023-03-14T05:52:33;14.77;;;13.27;;
6679;SDS011;3376;42.664;23.346;2023-03-14T05:55:00;15.07;;;13.53;;
6679;SDS011;3376;42.664;23.346;2023-03-14T05:57:26;16.33;;;13.57;;
6679;SDS011;3376;42.664;23.346;2023-03-14T05:59:53;23.23;;;13.87;;
6679;SDS011;3376;42.664;23.346;2023-03-14T06:02:20;17.80;;;12.90;;
6679;SDS011;3376;42.664;23.346;2023-03-14T06:04:47;19.43;;;13.93;;
6679;SDS011;3376;42.664;23.346;2023-03-14T06:07:13;28.77;;;15.37;;
6679;SDS011;3376;42.664;23.346;2023-03-14T06:09:41;18.43;;;14.67;;
6679;SDS011;3376;42.664;23.346;2023-03-14T06:12:08;21.63;;;14.47;;
6679;SDS011;3376;42.664;23.346;2023-03-14T06:14:35;24.87;;;14.70;;
6679;SDS011;3376;42.664;23.346;2023-03-14T06:17:01;16.27;;;13.33;;
6679;SDS011;3376;42.664;23.346;2023-03-14T06:19:28;17.50;;;13.47;;
6679;SDS011;3376;42.664;23.346;2023-03-14T06:21:55;18.67;;;13.50;;
6679;SDS011;3376;42.664;23.346;2023-03-14T06:24:22;15.23;;;13.53;;
6679;SDS011;3376;42.664;23.346;2023-03-14T06:26:50;36.93;;;13.30;;
6679;SDS011;3376;42.664;23.346;2023-03-14T06:29:17;15.90;;;13.90;;
6679;SDS011;3376;42.664;23.346;2023-03-14T06:31:43;20.43;;;13.43;;
6679;SDS011;3376;42.664;23.346;2023-03-14T06:34:10;18.80;;;14.67;;
6679;SDS011;3376;42.664;23.346;2023-03-14T06:36:37;15.13;;;13.53;;
6679;SDS011;3376;42.664;23.346;2023-03-14T06:39:04;14.83;;;13.30;;
6679;SDS011;3376;42.664;23.346;2023-03-14T06:41:30;12.23;;;10.23;;
6679;SDS011;3376;42.664;23.346;2023-03-14T06:43:59;20.93;;;11.77;;
6679;SDS011;3376;42.664;23.346;2023-03-14T06:46:26;9.53;;;8.73;;
6679;SDS011;3376;42.664;23.346;2023-03-14T06:48:52;7.87;;;7.37;;
6679;SDS011;3376;42.664;23.346;2023-03-14T06:51:19;8.73;;;7.57;;
6679;SDS011;3376;42.664;23.346;2023-03-14T06:53:46;8.47;;;7.77;;
6679;SDS011;3376;42.664;23.346;2023-03-14T06:56:13;7.43;;;6.83;;
6679;SDS011;3376;42.664;23.346;2023-03-14T06:58:40;7.90;;;7.40;;
6679;SDS011;3376;42.664;23.346;2023-03-14T07:01:11;8.03;;;7.47;;
6679;SDS011;3376;42.664;23.346;2023-03-14T07:03:46;7.87;;;7.13;;
6679;SDS011;3376;42.664;23.346;2023-03-14T07:06:13;7.70;;;7.10;;
6679;SDS011;3376;42.664;23.346;2023-03-14T07:08:39;8.30;;;7.63;;
6679;SDS011;3376;42.664;23.346;2023-03-14T07:11:07;7.83;;;7.20;;
6679;SDS011;3376;42.664;23.346;2023-03-14T07:13:35;8.40;;;7.53;;
6679;SDS011;3376;42.664;23.346;2023-03-14T07:16:02;8.33;;;7.07;;
6679;SDS011;3376;42.664;23.346;2023-03-14T07:18:30;7.87;;;7.10;;
6679;SDS011;3376;42.664;23.346;2023-03-14T07:20:57;9.10;;;8.03;;
6679;SDS011;3376;42.664;23.346;2023-03-14T07:23:23;8.33;;;7.57;;
6679;SDS011;3376;42.664;23.346;2023-03-14T07:25:50;9.17;;;8.47;;
6679;SDS011;3376;42.664;23.346;2023-03-14T07:28:18;8.97;;;7.87;;
6679;SDS011;3376;42.664;23.346;2023-03-14T07:30:45;8.00;;;7.40;;
6679;SDS011;3376;42.664;23.346;2023-03-14T07:33:12;9.37;;;8.67;;
6679;SDS011;3376;42.664;23.346;2023-03-14T07:35:40;9.33;;;8.43;;
6679;SDS011;3376;42.664;23.346;2023-03-14T07:38:07;11.33;;;10.27;;
6679;SDS011;3376;42.664;23.346;2023-03-14T07:40:34;13.90;;;11.77;;
6679;SDS011;3376;42.664;23.346;2023-03-14T07:43:00;12.50;;;10.67;;
6679;SDS011;3376;42.664;23.346;2023-03-14T07:45:27;11.80;;;10.70;;
6679;SDS011;3376;42.664;23.346;2023-03-14T07:47:54;12.53;;;11.30;;
6679;SDS011;3376;42.664;23.346;2023-03-14T07:50:22;13.00;;;11.70;;
6679;SDS011;3376;42.664;23.346;2023-03-14T07:52:50;11.97;;;11.03;;
6679;SDS011;3376;42.664;23.346;2023-03-14T07:55:17;20.97;;;11.87;;
6679;SDS011;3376;42.664;23.346;2023-03-14T07:57:44;13.03;;;11.13;;
6679;SDS011;3376;42.664;23.346;2023-03-14T08:00:11;11.17;;;10.07;;
6679;SDS011;3376;42.664;23.346;2023-03-14T08:02:39;10.97;;;10.27;;
6679;SDS011;3376;42.664;23.346;2023-03-14T08:05:24;11.30;;;10.40;;
6679;SDS011;3376;42.664;23.346;2023-03-14T08:07:52;11.53;;;10.57;;
6679;SDS011;3376;42.664;23.346;2023-03-14T08:10:19;12.00;;;11.00;;
6679;SDS011;3376;42.664;23.346;2023-03-14T08:12:49;12.93;;;11.60;;
6679;SDS011;3376;42.664;23.346;2023-03-14T08:15:15;11.57;;;10.43;;
6679;SDS011;3376;42.664;23.346;2023-03-14T08:17:42;11.13;;;10.07;;
6679;SDS011;3376;42.664;23.346;2023-03-14T08:20:10;12.17;;;11.10;;
6679;SDS011;3376;42.664;23.346;2023-03-14T08:22:38;11.50;;;10.50;;
6679;SDS011;3376;42.664;23.346;2023-03-14T08:25:06;12.73;;;11.63;;
6679;SDS011;3376;42.664;23.346;2023-03-14T08:27:33;11.30;;;10.30;;
6679;SDS011;3376;42.664;23.346;2023-03-14T08:30:03;11.33;;;10.30;;
6679;SDS011;3376;42.664;23.346;2023-03-14T08:32:30;11.30;;;10.37;;
6679;SDS011;3376;42.664;23.346;2023-03-14T08:34:57;10.10;;;9.30;;
6679;SDS011;3376;42.664;23.346;2023-03-14T08:37:24;11.97;;;10.83;;
6679;SDS011;3376;42.664;23.346;2023-03-14T08:39:51;11.30;;;10.20;;
6679;SDS011;3376;42.664;23.346;2023-03-14T08:42:19;11.13;;;10.20;;
6679;SDS011;3376;42.664;23.346;2023-03-14T08:44:46;11.10;;;10.40;;
6679;SDS011;3376;42.664;23.346;2023-03-14T08:47:13;11.33;;;10.33;;
6679;SDS011;3376;42.664;23.346;2023-03-14T08:49:39;14.40;;;10.00;;
6679;SDS011;3376;42.664;23.346;2023-03-14T08:52:06;13.83;;;10.63;;
6679;SDS011;3376;42.664;23.346;2023-03-14T08:54:33;17.90;;;16.23;;
6679;SDS011;3376;42.664;23.346;2023-03-14T08:57:00;13.77;;;12.40;;
6679;SDS011;3376;42.664;23.346;2023-03-14T08:59:28;10.33;;;9.37;;
6679;SDS011;3376;42.664;23.346;2023-03-14T09:01:55;13.77;;;10.10;;
6679;SDS011;3376;42.664;23.346;2023-03-14T09:04:21;9.77;;;9.10;;
6679;SDS011;3376;42.664;23.346;2023-03-14T09:06:48;9.93;;;9.33;;
6679;SDS011;3376;42.664;23.346;2023-03-14T09:09:15;13.40;;;9.37;;
6679;SDS011;3376;42.664;23.346;2023-03-14T09:11:42;10.30;;;9.33;;
6679;SDS011;3376;42.664;23.346;2023-03-14T09:14:08;9.87;;;9.17;;
6679;SDS011;3376;42.664;23.346;2023-03-14T09:16:37;9.63;;;8.97;;
6679;SDS011;3376;42.664;23.346;2023-03-14T09:19:03;8.53;;;7.90;;
6679;SDS011;3376;42.664;23.346;2023-03-14T09:21:30;7.70;;;7.30;;
6679;SDS011;3376;42.664;23.346;2023-03-14T09:23:57;9.77;;;8.77;;
6679;SDS011;3376;42.664;23.346;2023-03-14T09:26:24;8.17;;;7.57;;
6679;SDS011;3376;42.664;23.346;2023-03-14T09:28:51;8.07;;;7.67;;
6679;SDS011;3376;42.664;23.346;2023-03-14T09:31:17;9.17;;;8.47;;
6679;SDS011;3376;42.664;23.346;2023-03-14T09:33:45;8.50;;;7.90;;
6679;SDS011;3376;42.664;23.346;2023-03-14T09:36:12;10.03;;;8.27;;
6679;SDS011;3376;42.664;23.346;2023-03-14T09:38:41;7.50;;;7.20;;
6679;SDS011;3376;42.664;23.346;2023-03-14T09:41:12;9.23;;;8.30;;
6679;SDS011;3376;42.664;23.346;2023-03-14T09:43:42;9.07;;;8.30;;
6679;SDS011;3376;42.664;23.346;2023-03-14T09:46:11;7.17;;;6.70;;
6679;SDS011;3376;42.664;23.346;2023-03-14T09:48:40;11.07;;;7.10;;
6679;SDS011;3376;42.664;23.346;2023-03-14T09:51:12;7.57;;;7.07;;
6679;SDS011;3376;42.664;23.346;2023-03-14T09:53:42;6.90;;;6.43;;
6679;SDS011;3376;42.664;23.346;2023-03-14T09:56:11;8.40;;;7.87;;
6679;SDS011;3376;42.664;23.346;2023-03-14T09:58:41;8.37;;;7.47;;
6679;SDS011;3376;42.664;23.346;2023-03-14T10:01:11;9.17;;;7.80;;
6679;SDS011;3376;42.664;23.346;2023-03-14T10:03:42;8.00;;;7.30;;
6679;SDS011;3376;42.664;23.346;2023-03-14T10:06:12;8.40;;;7.70;;
6679;SDS011;3376;42.664;23.346;2023-03-14T10:08:40;7.63;;;7.03;;
6679;SDS011;3376;42.664;23.346;2023-03-14T10:11:09;8.50;;;7.93;;
6679;SDS011;3376;42.664;23.346;2023-03-14T10:13:46;8.40;;;7.67;;
6679;SDS011;3376;42.664;23.346;2023-03-14T10:16:14;8.90;;;8.13;;
6679;SDS011;3376;42.664;23.346;2023-03-14T10:18:43;8.20;;;7.73;;
6679;SDS011;3376;42.664;23.346;2023-03-14T10:21:28;8.80;;;8.13;;
6679;SDS011;3376;42.664;23.346;2023-03-14T10:24:07;8.60;;;8.03;;
6679;SDS011;3376;42.664;23.346;2023-03-14T10:26:35;8.07;;;7.57;;
6679;SDS011;3376;42.664;23.346;2023-03-14T10:29:03;7.43;;;7.03;;
6679;SDS011;3376;42.664;23.346;2023-03-14T10:31:45;7.10;;;6.70;;
6679;SDS011;3376;42.664;23.346;2023-03-14T10:34:15;7.47;;;7.00;;
6679;SDS011;3376;42.664;23.346;2023-03-14T10:36:48;6.83;;;6.20;;
6679;SDS011;3376;42.664;23.346;2023-03-14T10:39:24;10.97;;;6.93;;
6679;SDS011;3376;42.664;23.346;2023-03-14T10:41:54;6.27;;;5.50;;
6679;SDS011;3376;42.664;23.346;2023-03-14T10:44:23;7.13;;;6.50;;
6679;SDS011;3376;42.664;23.346;2023-03-14T10:46:55;6.97;;;6.47;;
6679;SDS011;3376;42.664;23.346;2023-03-14T10:49:25;9.03;;;6.50;;
6679;SDS011;3376;42.664;23.346;2023-03-14T10:51:55;5.60;;;5.20;;
6679;SDS011;3376;42.664;23.346;2023-03-14T10:54:29;5.70;;;5.50;;
6679;SDS011;3376;42.664;23.346;2023-03-14T10:56:56;6.83;;;4.93;;
6679;SDS011;3376;42.664;23.346;2023-03-14T10:59:25;5.20;;;4.87;;
6679;SDS011;3376;42.664;23.346;2023-03-14T11:01:56;4.10;;;3.80;;
6679;SDS011;3376;42.664;23.346;2023-03-14T11:04:31;4.30;;;4.10;;
6679;SDS011;3376;42.664;23.346;2023-03-14T11:07:15;4.00;;;3.80;;
6679;SDS011;3376;42.664;23.346;2023-03-14T11:09:49;4.17;;;3.80;;
6679;SDS011;3376;42.664;23.346;2023-03-14T11:12:28;3.73;;;3.23;;
6679;SDS011;3376;42.664;23.346;2023-03-14T11:15:05;4.23;;;3.30;;
6679;SDS011;3376;42.664;23.346;2023-03-14T11:17:41;6.70;;;3.60;;
6679;SDS011;3376;42.664;23.346;2023-03-14T11:20:22;3.53;;;2.93;;
6679;SDS011;3376;42.664;23.346;2023-03-14T11:22:59;4.07;;;3.80;;
6679;SDS011;3376;42.664;23.346;2023-03-14T11:25:35;4.63;;;3.10;;
6679;SDS011;3376;42.664;23.346;2023-03-14T11:28:10;3.50;;;3.37;;
6679;SDS011;3376;42.664;23.346;2023-03-14T11:30:46;4.17;;;3.70;;
6679;SDS011;3376;42.664;23.346;2023-03-14T11:33:19;5.27;;;3.37;;
6679;SDS011;3376;42.664;23.346;2023-03-14T11:35:53;3.70;;;3.50;;
6679;SDS011;3376;42.664;23.346;2023-03-14T11:38:31;10.77;;;9.83;;
6679;SDS011;3376;42.664;23.346;2023-03-14T11:41:03;4.80;;;4.30;;
6679;SDS011;3376;42.664;23.346;2023-03-14T11:43:37;3.03;;;2.93;;
6679;SDS011;3376;42.664;23.346;2023-03-14T11:46:09;3.50;;;3.30;;
6679;SDS011;3376;42.664;23.346;2023-03-14T11:48:42;4.70;;;3.30;;
6679;SDS011;3376;42.664;23.346;2023-03-14T11:51:18;3.47;;;3.27;;
6679;SDS011;3376;42.664;23.346;2023-03-14T11:53:53;2.87;;;2.77;;
6679;SDS011;3376;42.664;23.346;2023-03-14T11:56:26;3.17;;;2.93;;
6679;SDS011;3376;42.664;23.346;2023-03-14T11:59:00;6.20;;;2.90;;
6679;SDS011;3376;42.664;23.346;2023-03-14T12:01:34;7.27;;;3.00;;
6679;SDS011;3376;42.664;23.346;2023-03-14T12:04:11;3.67;;;2.80;;
6679;SDS011;3376;42.664;23.346;2023-03-14T12:06:47;3.30;;;3.10;;
6679;SDS011;3376;42.664;23.346;2023-03-14T12:09:17;3.90;;;2.70;;
6679;SDS011;3376;42.664;23.346;2023-03-14T12:11:47;2.83;;;2.70;;
6679;SDS011;3376;42.664;23.346;2023-03-14T12:14:19;2.53;;;2.43;;
6679;SDS011;3376;42.664;23.346;2023-03-14T12:16:48;3.80;;;2.47;;
6679;SDS011;3376;42.664;23.346;2023-03-14T12:19:26;2.83;;;2.50;;
6679;SDS011;3376;42.664;23.346;2023-03-14T12:21:57;2.27;;;2.10;;
6679;SDS011;3376;42.664;23.346;2023-03-14T12:24:29;4.17;;;2.40;;
6679;SDS011;3376;42.664;23.346;2023-03-14T12:27:00;2.33;;;2.23;;
6679;SDS011;3376;42.664;23.346;2023-03-14T12:29:28;2.63;;;2.30;;
6679;SDS011;3376;42.664;23.346;2023-03-14T12:32:12;2.47;;;2.37;;
6679;SDS011;3376;42.664;23.346;2023-03-14T12:34:49;3.17;;;2.60;;
6679;SDS011;3376;42.664;23.346;2023-03-14T12:37:29;4.30;;;2.67;;
6679;SDS011;3376;42.664;23.346;2023-03-14T12:40:12;2.80;;;2.60;;
6679;SDS011;3376;42.664;23.346;2023-03-14T12:42:46;4.13;;;2.53;;
6679;SDS011;3376;42.664;23.346;2023-03-14T12:45:24;3.63;;;2.20;;
6679;SDS011;3376;42.664;23.346;2023-03-14T12:50:42;2.20;;;2.10;;
6679;SDS011;3376;42.664;23.346;2023-03-14T12:56:28;2.93;;;1.47;;
6679;SDS011;3376;42.664;23.346;2023-03-14T12:59:13;3.37;;;2.20;;
6679;SDS011;3376;42.664;23.346;2023-03-14T13:01:53;2.73;;;2.00;;
6679;SDS011;3376;42.664;23.346;2023-03-14T13:04:26;1.43;;;1.43;;
6679;SDS011;3376;42.664;23.346;2023-03-14T13:06:56;2.00;;;1.90;;
6679;SDS011;3376;42.664;23.346;2023-03-14T13:12:37;2.70;;;1.80;;
6679;SDS011;3376;42.664;23.346;2023-03-14T13:17:56;1.80;;;1.70;;
6679;SDS011;3376;42.664;23.346;2023-03-14T13:20:28;2.00;;;1.90;;
6679;SDS011;3376;42.664;23.346;2023-03-14T13:22:58;2.43;;;1.60;;
6679;SDS011;3376;42.664;23.346;2023-03-14T13:25:29;2.20;;;2.10;;
6679;SDS011;3376;42.664;23.346;2023-03-14T13:28:00;1.90;;;1.80;;
6679;SDS011;3376;42.664;23.346;2023-03-14T13:30:28;2.70;;;1.80;;
6679;SDS011;3376;42.664;23.346;2023-03-14T13:33:03;6.43;;;2.30;;
6679;SDS011;3376;42.664;23.346;2023-03-14T13:35:37;1.83;;;1.77;;
6679;SDS011;3376;42.664;23.346;2023-03-14T13:38:13;1.60;;;1.60;;
6679;SDS011;3376;42.664;23.346;2023-03-14T13:40:43;1.97;;;1.87;;
6679;SDS011;3376;42.664;23.346;2023-03-14T13:43:14;1.40;;;1.30;;
6679;SDS011;3376;42.664;23.346;2023-03-14T13:45:53;2.50;;;1.53;;
6679;SDS011;3376;42.664;23.346;2023-03-14T13:48:22;1.80;;;1.70;;
6679;SDS011;3376;42.664;23.346;2023-03-14T13:50:53;1.77;;;1.67;;
6679;SDS011;3376;42.664;23.346;2023-03-14T13:53:24;1.80;;;1.70;;
6679;SDS011;3376;42.664;23.346;2023-03-14T13:55:51;2.27;;;1.80;;
6679;SDS011;3376;42.664;23.346;2023-03-14T13:58:24;1.70;;;1.60;;
6679;SDS011;3376;42.664;23.346;2023-03-14T14:00:57;2.03;;;1.70;;
6679;SDS011;3376;42.664;23.346;2023-03-14T14:03:27;2.00;;;1.83;;
6679;SDS011;3376;42.664;23.346;2023-03-14T14:05:55;1.70;;;1.60;;
6679;SDS011;3376;42.664;23.346;2023-03-14T14:08:23;1.37;;;1.37;;
6679;SDS011;3376;42.664;23.346;2023-03-14T14:10:52;4.07;;;2.23;;
6679;SDS011;3376;42.664;23.346;2023-03-14T14:13:24;2.83;;;1.63;;
6679;SDS011;3376;42.664;23.346;2023-03-14T14:15:53;2.17;;;1.60;;
6679;SDS011;3376;42.664;23.346;2023-03-14T14:18:22;1.80;;;1.70;;
6679;SDS011;3376;42.664;23.346;2023-03-14T14:20:52;2.90;;;1.50;;
6679;SDS011;3376;42.664;23.346;2023-03-14T14:23:20;2.03;;;1.60;;
6679;SDS011;3376;42.664;23.346;2023-03-14T14:25:50;1.90;;;1.80;;
6679;SDS011;3376;42.664;23.346;2023-03-14T14:28:21;1.30;;;1.30;;
6679;SDS011;3376;42.664;23.346;2023-03-14T14:30:59;1.60;;;1.50;;
6679;SDS011;3376;42.664;23.346;2023-03-14T14:33:37;1.80;;;1.70;;
6679;SDS011;3376;42.664;23.346;2023-03-14T14:36:11;4.77;;;1.67;;
6679;SDS011;3376;42.664;23.346;2023-03-14T14:38:48;1.93;;;1.67;;
6679;SDS011;3376;42.664;23.346;2023-03-14T14:41:15;2.10;;;2.00;;
6679;SDS011;3376;42.664;23.346;2023-03-14T14:43:43;2.03;;;1.67;;
6679;SDS011;3376;42.664;23.346;2023-03-14T14:46:13;2.13;;;1.93;;
6679;SDS011;3376;42.664;23.346;2023-03-14T14:48:45;2.23;;;1.63;;
6679;SDS011;3376;42.664;23.346;2023-03-14T14:51:22;2.53;;;1.40;;
6679;SDS011;3376;42.664;23.346;2023-03-14T14:53:59;1.47;;;1.47;;
6679;SDS011;3376;42.664;23.346;2023-03-14T14:56:28;1.77;;;1.40;;
6679;SDS011;3376;42.664;23.346;2023-03-14T14:58:57;1.47;;;1.37;;
6679;SDS011;3376;42.664;23.346;2023-03-14T15:01:31;1.00;;;1.00;;
6679;SDS011;3376;42.664;23.346;2023-03-14T15:03:59;2.13;;;1.80;;
6679;SDS011;3376;42.664;23.346;2023-03-14T15:06:28;1.80;;;1.30;;
6679;SDS011;3376;42.664;23.346;2023-03-14T15:08:56;3.33;;;1.60;;
6679;SDS011;3376;42.664;23.346;2023-03-14T15:11:24;1.63;;;1.43;;
6679;SDS011;3376;42.664;23.346;2023-03-14T15:13:52;1.17;;;1.17;;
6679;SDS011;3376;42.664;23.346;2023-03-14T15:16:21;1.37;;;1.27;;
6679;SDS011;3376;42.664;23.346;2023-03-14T15:18:51;1.60;;;1.60;;